createdAt,value
2019-04-22T00:00:32.390Z,10.25
2019-04-22T00:01:04.846Z,10.19
2019-04-22T00:01:36.884Z,10.19
2019-04-22T00:02:13.235Z,10.19
2019-04-22T00:02:51.545Z,10.19
2019-04-22T00:03:23.559Z,10.19
2019-04-22T00:04:03.852Z,10.19
2019-04-22T00:04:45.323Z,10.19
2019-04-22T00:05:17.593Z,10.19
2019-04-22T00:06:00.936Z,10.13
2019-04-22T00:06:39.295Z,10.13
2019-04-22T00:07:15.632Z,10.13
2019-04-22T00:08:32.655Z,10.13
2019-04-22T00:09:03.297Z,10.13
2019-04-22T00:09:38.870Z,10.13
2019-04-22T00:10:11.807Z,10.13
2019-04-22T00:10:48.703Z,10.06
2019-04-22T00:11:29.149Z,10.06
2019-04-22T00:12:06.318Z,10.06
2019-04-22T00:12:37.334Z,10.06
2019-04-22T00:13:09.397Z,10.06
2019-04-22T00:13:55.541Z,10.06
2019-04-22T00:14:11.688Z,10.00
2019-04-22T00:14:52.506Z,10.00
2019-04-22T00:15:26.066Z,10.00
2019-04-22T00:16:00.991Z,10.00
2019-04-22T00:16:50.327Z,10.00
2019-04-22T00:17:25.070Z,10.00
2019-04-22T00:18:35.765Z,9.94
2019-04-22T00:19:47.051Z,9.94
2019-04-22T00:20:14.789Z,9.94
2019-04-22T00:20:52.921Z,9.88
2019-04-22T00:21:25.730Z,9.88
2019-04-22T00:22:02.530Z,9.88
2019-04-22T00:22:32.062Z,9.88
2019-04-22T00:23:10.095Z,9.81
2019-04-22T00:23:47.028Z,9.81
2019-04-22T00:24:20.410Z,9.81
2019-04-22T00:24:51.290Z,9.81
2019-04-22T00:26:08.760Z,9.75
2019-04-22T00:26:48.377Z,9.75
2019-04-22T00:27:24.367Z,9.75
2019-04-22T00:28:00.841Z,9.75
2019-04-22T00:28:32.133Z,9.75
2019-04-22T00:29:14.504Z,9.75
2019-04-22T00:30:16.498Z,9.75
2019-04-22T00:30:50.638Z,9.75
2019-04-22T00:31:38.157Z,9.75
2019-04-22T00:32:12.748Z,9.69
2019-04-22T00:33:01.370Z,9.69
2019-04-22T00:33:31.251Z,9.69
2019-04-22T00:34:06.743Z,9.69
2019-04-22T00:34:48.802Z,9.69
2019-04-22T00:35:18.164Z,9.69
2019-04-22T00:35:55.226Z,9.63
2019-04-22T00:36:36.604Z,9.63
2019-04-22T00:37:13.288Z,9.63
2019-04-22T00:37:49.241Z,9.63
2019-04-22T00:38:25.094Z,9.63
2019-04-22T00:38:59.043Z,9.63
2019-04-22T00:39:39.751Z,9.63
2019-04-22T00:40:07.253Z,9.63
2019-04-22T00:40:46.155Z,9.63
2019-04-22T00:41:23.330Z,9.63
2019-04-22T00:41:56.961Z,9.63
2019-04-22T00:42:28.813Z,9.63
2019-04-22T00:43:10.083Z,9.63
2019-04-22T00:43:39.536Z,9.63
2019-04-22T00:44:18.864Z,9.63
2019-04-22T00:44:51.838Z,9.63
2019-04-22T00:45:31.140Z,9.63
2019-04-22T00:45:55.888Z,9.56
2019-04-22T00:46:43.194Z,9.56
2019-04-22T00:47:21.167Z,9.56
2019-04-22T00:48:05.934Z,9.56
2019-04-22T00:48:20.643Z,9.56
2019-04-22T00:49:18.730Z,9.56
2019-04-22T00:50:06.608Z,9.56
2019-04-22T00:50:49.627Z,9.56
2019-04-22T00:51:35.328Z,9.56
2019-04-22T00:52:01.901Z,9.50
2019-04-22T00:52:28.708Z,9.50
2019-04-22T00:53:03.866Z,9.50
2019-04-22T00:53:36.099Z,9.50
2019-04-22T00:54:08.684Z,9.50
2019-04-22T00:54:53.262Z,9.50
2019-04-22T00:56:35.634Z,9.50
2019-04-22T00:56:56.087Z,9.50
2019-04-22T00:57:35.513Z,9.50
2019-04-22T00:58:08.053Z,9.50
2019-04-22T00:58:46.717Z,9.50
2019-04-22T00:59:17.552Z,9.50
2019-04-22T00:59:58.261Z,9.44
2019-04-22T01:00:40.562Z,9.44
2019-04-22T01:01:17.365Z,9.44
2019-04-22T01:01:46.403Z,9.44
2019-04-22T01:02:24.540Z,9.44
2019-04-22T01:02:59.271Z,9.44
2019-04-22T01:03:34.191Z,9.38
2019-04-22T01:04:12.502Z,9.38
2019-04-22T01:05:21.997Z,9.38
2019-04-22T01:05:51.470Z,9.38
2019-04-22T01:06:27.074Z,9.38
2019-04-22T01:06:58.656Z,9.38
2019-04-22T01:07:35.586Z,9.38
2019-04-22T01:08:19.672Z,9.38
2019-04-22T01:08:53.658Z,9.38
2019-04-22T01:09:26.282Z,9.31
2019-04-22T01:09:58.942Z,9.31
2019-04-22T01:10:31.821Z,9.31
2019-04-22T01:11:11.280Z,9.31
2019-04-22T01:11:37.546Z,9.31
2019-04-22T01:12:24.715Z,9.31
2019-04-22T01:12:54.651Z,9.31
2019-04-22T01:13:24.919Z,9.31
2019-04-22T01:14:01.261Z,9.31
2019-04-22T01:14:35.296Z,9.31
2019-04-22T01:15:17.601Z,9.31
2019-04-22T01:15:47.570Z,9.31
2019-04-22T01:16:22.620Z,9.31
2019-04-22T01:17:32.971Z,9.25
2019-04-22T01:18:08.268Z,9.25
2019-04-22T01:18:45.705Z,9.25
2019-04-22T01:19:15.084Z,9.25
2019-04-22T01:19:58.526Z,9.25
2019-04-22T01:20:57.435Z,9.25
2019-04-22T01:21:17.763Z,9.25
2019-04-22T01:21:52.333Z,9.25
2019-04-22T01:22:17.768Z,9.25
2019-04-22T01:22:52.131Z,9.25
2019-04-22T01:23:23.817Z,9.19
2019-04-22T01:23:57.619Z,9.25
2019-04-22T01:24:32.787Z,9.19
2019-04-22T01:25:08.852Z,9.19
2019-04-22T01:25:47.159Z,9.19
2019-04-22T01:26:22.945Z,9.19
2019-04-22T01:26:58.206Z,9.19
2019-04-22T01:27:30.665Z,9.25
2019-04-22T01:28:06.420Z,9.25
2019-04-22T01:28:39.883Z,9.25
2019-04-22T01:29:14.938Z,9.25
2019-04-22T01:29:48.985Z,9.25
2019-04-22T01:30:24.148Z,9.25
2019-04-22T01:30:59.782Z,9.19
2019-04-22T01:31:30.615Z,9.19
2019-04-22T01:32:05.846Z,9.19
2019-04-22T01:32:41.863Z,9.19
2019-04-22T01:33:21.577Z,9.19
2019-04-22T01:34:04.347Z,9.19
2019-04-22T01:34:36.431Z,9.19
2019-04-22T01:35:14.324Z,9.19
2019-04-22T01:35:53.875Z,9.19
2019-04-22T01:36:28.822Z,9.13
2019-04-22T01:37:02.477Z,9.13
2019-04-22T01:37:36.187Z,9.13
2019-04-22T01:38:07.978Z,9.13
2019-04-22T01:38:56.401Z,9.13
2019-04-22T01:39:33.840Z,9.13
2019-04-22T01:40:06.095Z,9.13
2019-04-22T01:40:45.742Z,9.13
2019-04-22T01:41:21.221Z,9.13
2019-04-22T01:42:01.261Z,9.13
2019-04-22T01:42:28.610Z,9.13
2019-04-22T01:43:16.533Z,9.13
2019-04-22T01:43:40.989Z,9.13
2019-04-22T01:44:45.320Z,9.06
2019-04-22T01:45:25.839Z,9.06
2019-04-22T01:46:01.775Z,9.06
2019-04-22T01:46:42.497Z,9.06
2019-04-22T01:47:12.858Z,9.06
2019-04-22T01:47:43.682Z,9.06
2019-04-22T01:48:19.771Z,9.06
2019-04-22T01:48:57.817Z,9.06
2019-04-22T01:49:30.150Z,9.13
2019-04-22T01:50:10.203Z,9.13
2019-04-22T01:50:37.245Z,9.13
2019-04-22T01:51:05.756Z,9.13
2019-04-22T01:52:22.119Z,9.06
2019-04-22T01:53:13.414Z,9.06
2019-04-22T01:53:33.503Z,9.06
2019-04-22T01:54:16.620Z,9.06
2019-04-22T01:55:27.327Z,9.06
2019-04-22T01:55:49.758Z,9.06
2019-04-22T01:56:27.229Z,9.06
2019-04-22T01:57:03.671Z,9.06
2019-04-22T01:57:36.457Z,9.00
2019-04-22T01:58:11.103Z,9.00
2019-04-22T01:58:39.673Z,9.00
2019-04-22T01:59:15.617Z,9.00
2019-04-22T01:59:51.492Z,9.00
2019-04-22T02:00:36.037Z,9.00
2019-04-22T02:01:13.601Z,9.00
2019-04-22T02:01:49.980Z,9.00
2019-04-22T02:02:25.159Z,9.00
2019-04-22T02:02:59.764Z,9.00
2019-04-22T02:03:33.306Z,9.00
2019-04-22T02:04:14.380Z,9.00
2019-04-22T02:04:48.001Z,9.00
2019-04-22T02:05:17.699Z,9.00
2019-04-22T02:05:54.901Z,8.94
2019-04-22T02:06:30.337Z,9.00
2019-04-22T02:08:25.755Z,9.00
2019-04-22T02:08:53.305Z,9.06
2019-04-22T02:09:31.358Z,9.06
2019-04-22T02:09:55.188Z,9.06
2019-04-22T02:10:40.381Z,9.06
2019-04-22T02:11:07.821Z,9.06
2019-04-22T02:12:00.118Z,9.06
2019-04-22T02:12:19.370Z,9.06
2019-04-22T02:12:58.797Z,9.06
2019-04-22T02:13:32.987Z,9.13
2019-04-22T02:14:05.111Z,9.06
2019-04-22T02:14:39.926Z,9.06
2019-04-22T02:15:16.773Z,9.06
2019-04-22T02:15:53.369Z,9.06
2019-04-22T02:16:27.314Z,9.06
2019-04-22T02:17:06.774Z,9.06
2019-04-22T02:17:37.162Z,9.06
2019-04-22T02:18:18.058Z,9.00
2019-04-22T02:18:44.641Z,9.00
2019-04-22T02:19:29.095Z,9.00
2019-04-22T02:19:57.573Z,9.00
2019-04-22T02:20:31.353Z,9.00
2019-04-22T02:21:03.146Z,8.94
2019-04-22T02:21:42.772Z,8.94
2019-04-22T02:22:24.857Z,8.94
2019-04-22T02:23:40.382Z,8.94
2019-04-22T02:24:02.683Z,8.94
2019-04-22T02:24:35.263Z,8.94
2019-04-22T02:24:59.118Z,8.94
2019-04-22T02:25:45.956Z,8.94
2019-04-22T02:26:31.271Z,8.94
2019-04-22T02:27:06.265Z,8.88
2019-04-22T02:27:27.383Z,8.88
2019-04-22T02:27:54.652Z,8.88
2019-04-22T02:29:06.585Z,8.88
2019-04-22T02:30:22.505Z,8.81
2019-04-22T02:31:23.085Z,8.81
2019-04-22T02:33:11.443Z,8.75
2019-04-22T02:33:44.166Z,8.75
2019-04-22T02:34:11.348Z,8.75
2019-04-22T02:34:32.478Z,8.75
2019-04-22T02:35:59.911Z,8.69
2019-04-22T02:37:22.913Z,8.69
2019-04-22T02:38:14.036Z,8.69
2019-04-22T02:39:11.839Z,8.63
2019-04-22T02:39:47.191Z,8.63
2019-04-22T02:40:38.089Z,8.63
2019-04-22T02:42:35.144Z,8.63
2019-04-22T02:43:24.045Z,8.63
2019-04-22T02:43:59.581Z,8.63
2019-04-22T02:44:30.364Z,8.56
2019-04-22T02:44:57.993Z,8.56
2019-04-22T02:46:00.067Z,8.56
2019-04-22T02:47:04.503Z,8.56
2019-04-22T02:48:09.912Z,8.56
2019-04-22T02:49:49.406Z,8.50
2019-04-22T02:50:19.244Z,8.50
2019-04-22T02:51:06.090Z,8.50
2019-04-22T02:51:23.824Z,8.50
2019-04-22T02:52:14.529Z,8.50
2019-04-22T02:52:50.565Z,8.50
2019-04-22T02:53:36.504Z,8.50
2019-04-22T02:55:10.663Z,8.44
2019-04-22T02:55:40.890Z,8.44
2019-04-22T02:57:33.750Z,8.38
2019-04-22T02:57:57.399Z,8.38
2019-04-22T02:58:47.880Z,8.38
2019-04-22T02:59:54.804Z,8.38
2019-04-22T03:00:21.884Z,8.38
2019-04-22T03:01:07.764Z,8.38
2019-04-22T03:01:36.895Z,8.38
2019-04-22T03:02:06.794Z,8.31
2019-04-22T03:03:31.291Z,8.31
2019-04-22T03:04:24.604Z,8.31
2019-04-22T03:05:06.202Z,8.31
2019-04-22T03:06:30.413Z,8.31
2019-04-22T03:06:38.319Z,8.31
2019-04-22T03:07:16.480Z,8.31
2019-04-22T03:07:58.835Z,8.31
2019-04-22T03:08:30.222Z,8.25
2019-04-22T03:09:39.686Z,8.25
2019-04-22T03:10:20.439Z,8.25
2019-04-22T03:11:25.604Z,8.25
2019-04-22T03:12:11.568Z,8.31
2019-04-22T03:12:35.373Z,8.31
2019-04-22T03:13:25.266Z,8.31
2019-04-22T03:14:26.280Z,8.31
2019-04-22T03:14:56.321Z,8.25
2019-04-22T03:15:30.016Z,8.25
2019-04-22T03:16:57.816Z,8.25
2019-04-22T03:17:58.441Z,8.25
2019-04-22T03:19:30.831Z,8.25
2019-04-22T03:19:55.590Z,8.25
2019-04-22T03:20:11.088Z,8.25
2019-04-22T03:20:55.546Z,8.25
2019-04-22T03:21:24.206Z,8.25
2019-04-22T03:24:01.627Z,8.25
2019-04-22T03:25:14.068Z,8.25
2019-04-22T03:26:12.425Z,8.19
2019-04-22T03:27:16.381Z,8.19
2019-04-22T03:28:33.216Z,8.19
2019-04-22T03:30:45.336Z,8.19
2019-04-22T03:31:11.840Z,8.13
2019-04-22T03:32:53.788Z,8.13
2019-04-22T03:33:52.027Z,8.13
2019-04-22T03:35:36.830Z,8.06
2019-04-22T03:36:05.743Z,8.06
2019-04-22T03:37:04.565Z,8.06
2019-04-22T03:37:20.563Z,8.06
2019-04-22T03:38:20.166Z,8.06
2019-04-22T03:40:50.451Z,8.00
2019-04-22T03:41:32.357Z,8.00
2019-04-22T03:42:07.626Z,8.00
2019-04-22T03:42:52.500Z,8.00
2019-04-22T03:43:08.033Z,8.00
2019-04-22T03:44:27.052Z,8.00
2019-04-22T03:44:49.817Z,8.00
2019-04-22T03:45:46.501Z,8.00
2019-04-22T03:46:46.883Z,8.00
2019-04-22T03:47:17.596Z,8.00
2019-04-22T03:47:41.228Z,8.00
2019-04-22T03:49:03.883Z,7.94
2019-04-22T03:50:15.910Z,7.94
2019-04-22T03:50:42.879Z,7.94
2019-04-22T03:51:33.739Z,7.94
2019-04-22T03:52:03.004Z,7.94
2019-04-22T03:53:04.026Z,7.87
2019-04-22T03:53:38.733Z,7.87
2019-04-22T03:54:19.330Z,7.87
2019-04-22T03:54:53.769Z,7.87
2019-04-22T03:55:59.726Z,7.87
2019-04-22T03:58:05.549Z,7.81
2019-04-22T03:59:45.475Z,7.81
2019-04-22T03:59:58.751Z,7.81
2019-04-22T04:00:47.830Z,7.81
2019-04-22T04:01:18.749Z,7.81
2019-04-22T04:01:53.395Z,7.81
2019-04-22T04:02:28.839Z,7.81
2019-04-22T04:02:54.520Z,7.81
2019-04-22T04:03:57.689Z,7.81
2019-04-22T04:04:36.852Z,7.81
2019-04-22T04:05:29.534Z,7.81
2019-04-22T04:06:29.680Z,7.81
2019-04-22T04:08:54.716Z,7.75
2019-04-22T04:10:08.084Z,7.75
2019-04-22T04:11:01.174Z,7.75
2019-04-22T04:13:01.890Z,7.75
2019-04-22T04:13:33.869Z,7.75
2019-04-22T04:14:12.377Z,7.75
2019-04-22T04:14:50.831Z,7.75
2019-04-22T04:15:52.329Z,7.75
2019-04-22T04:16:30.340Z,7.75
2019-04-22T04:18:05.942Z,7.75
2019-04-22T04:19:36.720Z,7.81
2019-04-22T04:21:22.760Z,7.81
2019-04-22T04:21:57.996Z,7.81
2019-04-22T04:22:35.881Z,7.75
2019-04-22T04:23:01.666Z,7.75
2019-04-22T04:23:37.581Z,7.75
2019-04-22T04:24:25.846Z,7.75
2019-04-22T04:24:59.285Z,7.75
2019-04-22T04:26:02.366Z,7.69
2019-04-22T04:26:35.181Z,7.69
2019-04-22T04:28:43.844Z,7.69
2019-04-22T04:29:37.732Z,7.62
2019-04-22T04:30:11.217Z,7.62
2019-04-22T04:30:31.523Z,7.62
2019-04-22T04:31:21.865Z,7.62
2019-04-22T04:31:53.347Z,7.69
2019-04-22T04:32:38.707Z,7.69
2019-04-22T04:33:04.821Z,7.69
2019-04-22T04:33:35.956Z,7.69
2019-04-22T04:34:08.136Z,7.75
2019-04-22T04:35:25.381Z,7.75
2019-04-22T04:36:02.601Z,7.75
2019-04-22T04:36:30.642Z,7.75
2019-04-22T04:37:06.777Z,7.75
2019-04-22T04:37:46.896Z,7.75
2019-04-22T04:38:45.677Z,7.75
2019-04-22T04:39:18.749Z,7.75
2019-04-22T04:40:12.522Z,7.75
2019-04-22T04:41:10.858Z,7.75
2019-04-22T04:42:25.456Z,7.75
2019-04-22T04:44:04.414Z,7.75
2019-04-22T04:44:48.741Z,7.75
2019-04-22T04:45:26.561Z,7.81
2019-04-22T04:45:57.232Z,7.81
2019-04-22T04:46:27.157Z,7.81
2019-04-22T04:49:00.911Z,7.81
2019-04-22T04:49:37.335Z,7.87
2019-04-22T04:50:51.103Z,7.87
2019-04-22T04:52:45.128Z,8.00
2019-04-22T04:53:34.294Z,8.06
2019-04-22T04:54:24.257Z,8.13
2019-04-22T04:54:58.905Z,8.19
2019-04-22T04:55:53.143Z,8.31
2019-04-22T04:56:35.907Z,8.31
2019-04-22T04:59:16.372Z,8.50
2019-04-22T05:00:40.246Z,8.56
2019-04-22T05:01:23.191Z,8.63
2019-04-22T05:01:52.710Z,8.69
2019-04-22T05:02:30.871Z,8.69
2019-04-22T05:03:46.653Z,8.75
2019-04-22T05:04:14.335Z,8.75
2019-04-22T05:05:00.002Z,8.75
2019-04-22T05:05:35.319Z,8.75
2019-04-22T05:06:40.016Z,8.81
2019-04-22T05:07:56.046Z,8.88
2019-04-22T05:08:29.594Z,8.88
2019-04-22T05:10:09.864Z,8.94
2019-04-22T05:11:16.171Z,8.88
2019-04-22T05:12:42.313Z,8.88
2019-04-22T05:12:56.707Z,8.88
2019-04-22T05:13:39.457Z,8.88
2019-04-22T05:14:41.587Z,8.81
2019-04-22T05:16:13.437Z,8.81
2019-04-22T05:17:03.109Z,8.75
2019-04-22T05:18:14.373Z,8.75
2019-04-22T05:18:52.781Z,8.75
2019-04-22T05:19:23.959Z,8.75
2019-04-22T05:20:49.273Z,8.75
2019-04-22T05:21:40.207Z,8.81
2019-04-22T05:22:12.061Z,8.81
2019-04-22T05:23:31.998Z,8.88
2019-04-22T05:24:38.088Z,9.00
2019-04-22T05:25:15.044Z,9.06
2019-04-22T05:25:40.914Z,9.06
2019-04-22T05:26:57.453Z,9.13
2019-04-22T05:28:07.593Z,9.13
2019-04-22T05:28:35.023Z,9.19
2019-04-22T05:29:19.423Z,9.19
2019-04-22T05:30:26.770Z,9.19
2019-04-22T05:31:03.383Z,9.19
2019-04-22T05:31:37.552Z,9.25
2019-04-22T05:32:10.209Z,9.25
2019-04-22T05:32:44.663Z,9.25
2019-04-22T05:33:21.412Z,9.25
2019-04-22T05:33:56.447Z,9.25
2019-04-22T05:34:28.046Z,9.31
2019-04-22T05:35:06.798Z,9.38
2019-04-22T05:35:39.255Z,9.38
2019-04-22T05:36:15.788Z,9.44
2019-04-22T05:36:49.447Z,9.44
2019-04-22T05:37:27.646Z,9.44
2019-04-22T05:38:02.720Z,9.50
2019-04-22T05:38:40.294Z,9.56
2019-04-22T05:39:11.189Z,9.56
2019-04-22T05:39:42.474Z,9.63
2019-04-22T05:40:24.266Z,9.63
2019-04-22T05:40:56.448Z,9.69
2019-04-22T05:42:10.476Z,9.75
2019-04-22T05:42:39.433Z,9.75
2019-04-22T05:43:15.876Z,9.81
2019-04-22T05:43:50.188Z,9.81
2019-04-22T05:44:31.899Z,9.88
2019-04-22T05:45:03.052Z,9.88
2019-04-22T05:45:31.168Z,9.94
2019-04-22T05:46:09.168Z,9.94
2019-04-22T05:46:47.980Z,10.00
2019-04-22T05:47:26.167Z,10.00
2019-04-22T05:47:57.612Z,10.00
2019-04-22T05:48:38.066Z,10.06
2019-04-22T05:49:12.885Z,10.06
2019-04-22T05:49:41.620Z,10.13
2019-04-22T05:50:20.362Z,10.13
2019-04-22T05:50:57.947Z,10.19
2019-04-22T05:51:31.264Z,10.19
2019-04-22T05:52:04.716Z,10.25
2019-04-22T05:52:47.146Z,10.25
2019-04-22T05:53:26.736Z,10.31
2019-04-22T05:54:01.526Z,10.31
2019-04-22T05:54:36.100Z,10.31
2019-04-22T05:55:14.390Z,10.38
2019-04-22T05:55:48.891Z,10.38
2019-04-22T05:56:28.161Z,10.44
2019-04-22T05:56:42.851Z,10.44
2019-04-22T05:57:37.216Z,10.44
2019-04-22T05:58:02.498Z,10.44
2019-04-22T05:58:50.053Z,10.50
2019-04-22T05:59:22.784Z,10.50
2019-04-22T05:59:57.363Z,10.50
2019-04-22T06:00:36.891Z,10.56
2019-04-22T06:01:29.132Z,10.56
2019-04-22T06:01:59.724Z,10.56
2019-04-22T06:02:24.129Z,10.63
2019-04-22T06:02:52.929Z,10.63
2019-04-22T06:03:22.140Z,10.69
2019-04-22T06:04:36.856Z,10.69
2019-04-22T06:05:12.097Z,10.75
2019-04-22T06:06:05.581Z,10.75
2019-04-22T06:06:18.238Z,10.75
2019-04-22T06:06:57.141Z,10.81
2019-04-22T06:07:33.724Z,10.81
2019-04-22T06:08:03.931Z,10.88
2019-04-22T06:08:48.698Z,10.88
2019-04-22T06:10:03.027Z,10.94
2019-04-22T06:10:32.932Z,11.00
2019-04-22T06:11:08.128Z,11.00
2019-04-22T06:11:32.210Z,11.00
2019-04-22T06:12:12.237Z,11.06
2019-04-22T06:12:48.068Z,11.06
2019-04-22T06:13:23.602Z,11.06
2019-04-22T06:14:04.524Z,11.12
2019-04-22T06:14:44.587Z,11.12
2019-04-22T06:15:21.182Z,11.19
2019-04-22T06:15:52.904Z,11.19
2019-04-22T06:16:30.854Z,11.19
2019-04-22T06:17:12.374Z,11.25
2019-04-22T06:17:49.340Z,11.25
2019-04-22T06:18:22.588Z,11.31
2019-04-22T06:18:56.851Z,11.31
2019-04-22T06:19:31.532Z,11.38
2019-04-22T06:20:10.542Z,11.38
2019-04-22T06:20:56.921Z,11.38
2019-04-22T06:21:31.152Z,11.44
2019-04-22T06:21:56.024Z,11.44
2019-04-22T06:23:13.107Z,11.50
2019-04-22T06:23:52.365Z,11.50
2019-04-22T06:24:23.545Z,11.56
2019-04-22T06:24:55.392Z,11.56
2019-04-22T06:25:57.867Z,11.56
2019-04-22T06:27:21.833Z,11.69
2019-04-22T06:28:15.621Z,11.69
2019-04-22T06:28:38.357Z,11.69
2019-04-22T06:29:07.351Z,11.75
2019-04-22T06:29:31.219Z,11.75
2019-04-22T06:30:19.147Z,11.81
2019-04-22T06:30:48.748Z,11.81
2019-04-22T06:31:24.450Z,11.88
2019-04-22T06:32:17.462Z,11.88
2019-04-22T06:33:13.276Z,11.94
2019-04-22T06:33:40.499Z,12.00
2019-04-22T06:34:48.272Z,12.06
2019-04-22T06:35:37.932Z,12.13
2019-04-22T06:36:03.321Z,12.13
2019-04-22T06:38:11.041Z,12.19
2019-04-22T06:38:59.071Z,12.31
2019-04-22T06:39:34.213Z,12.31
2019-04-22T06:40:14.583Z,12.37
2019-04-22T06:40:46.762Z,12.37
2019-04-22T06:41:22.899Z,12.37
2019-04-22T06:41:58.896Z,12.44
2019-04-22T06:42:39.719Z,12.50
2019-04-22T06:43:10.316Z,12.50
2019-04-22T06:43:41.943Z,12.50
2019-04-22T06:44:29.560Z,12.56
2019-04-22T06:44:52.229Z,12.56
2019-04-22T06:45:24.117Z,12.63
2019-04-22T06:46:06.805Z,12.63
2019-04-22T06:46:42.728Z,12.69
2019-04-22T06:47:25.143Z,12.69
2019-04-22T06:47:59.119Z,12.69
2019-04-22T06:48:56.297Z,12.75
2019-04-22T06:49:31.837Z,12.81
2019-04-22T06:50:07.729Z,12.81
2019-04-22T06:50:43.332Z,12.88
2019-04-22T06:51:18.162Z,12.88
2019-04-22T06:51:55.569Z,12.88
2019-04-22T06:52:22.690Z,12.94
2019-04-22T06:53:06.795Z,12.94
2019-04-22T06:53:34.439Z,13.00
2019-04-22T06:54:07.260Z,13.00
2019-04-22T06:54:49.056Z,13.06
2019-04-22T06:55:22.382Z,13.13
2019-04-22T06:55:57.952Z,13.13
2019-04-22T06:56:27.436Z,13.13
2019-04-22T06:57:21.582Z,13.19
2019-04-22T06:57:41.660Z,13.19
2019-04-22T06:58:16.694Z,13.25
2019-04-22T06:59:06.914Z,13.25
2019-04-22T06:59:26.497Z,13.31
2019-04-22T07:00:05.544Z,13.31
2019-04-22T07:00:36.584Z,13.38
2019-04-22T07:01:19.325Z,13.38
2019-04-22T07:01:49.420Z,13.44
2019-04-22T07:02:24.050Z,13.50
2019-04-22T07:03:18.972Z,13.50
2019-04-22T07:04:03.293Z,13.56
2019-04-22T07:04:41.868Z,13.62
2019-04-22T07:05:32.855Z,13.62
2019-04-22T07:05:53.885Z,13.69
2019-04-22T07:07:08.171Z,13.75
2019-04-22T07:07:45.295Z,13.81
2019-04-22T07:08:39.106Z,13.88
2019-04-22T07:10:06.646Z,14.00
2019-04-22T07:10:45.097Z,14.06
2019-04-22T07:11:05.742Z,14.06
2019-04-22T07:11:52.848Z,14.13
2019-04-22T07:12:24.693Z,14.13
2019-04-22T07:12:58.398Z,14.13
2019-04-22T07:13:34.639Z,14.19
2019-04-22T07:14:07.173Z,14.19
2019-04-22T07:14:42.118Z,14.25
2019-04-22T07:15:35.798Z,14.25
2019-04-22T07:15:59.526Z,14.31
2019-04-22T07:16:32.368Z,14.38
2019-04-22T07:17:01.926Z,14.44
2019-04-22T07:17:45.858Z,14.50
2019-04-22T07:18:19.822Z,14.50
2019-04-22T07:18:51.353Z,14.56
2019-04-22T07:19:55.853Z,14.69
2019-04-22T07:20:41.631Z,14.75
2019-04-22T07:21:06.518Z,14.81
2019-04-22T07:21:44.868Z,14.94
2019-04-22T07:22:54.958Z,15.13
2019-04-22T07:23:33.331Z,15.19
2019-04-22T07:24:20.185Z,15.25
2019-04-22T07:25:31.855Z,15.44
2019-04-22T07:26:04.268Z,15.50
2019-04-22T07:26:29.100Z,15.56
2019-04-22T07:27:05.687Z,15.63
2019-04-22T07:27:34.675Z,15.75
2019-04-22T07:28:14.251Z,15.81
2019-04-22T07:28:44.858Z,16.00
2019-04-22T07:29:18.990Z,16.12
2019-04-22T07:30:01.998Z,16.25
2019-04-22T07:30:31.287Z,16.44
2019-04-22T07:31:18.384Z,16.56
2019-04-22T07:31:45.093Z,16.69
2019-04-22T07:32:32.168Z,16.69
2019-04-22T07:33:32.387Z,16.94
2019-04-22T07:34:08.227Z,17.06
2019-04-22T07:34:40.746Z,17.19
2019-04-22T07:35:23.892Z,17.31
2019-04-22T07:37:13.009Z,17.69
2019-04-22T07:38:22.218Z,18.00
2019-04-22T07:38:45.543Z,18.12
2019-04-22T07:39:23.735Z,18.12
2019-04-22T07:39:50.114Z,18.19
2019-04-22T07:40:37.503Z,18.25
2019-04-22T07:41:03.575Z,18.25
2019-04-22T07:42:20.346Z,18.44
2019-04-22T07:42:48.097Z,18.50
2019-04-22T07:43:40.883Z,18.62
2019-04-22T07:44:13.090Z,18.69
2019-04-22T07:44:38.701Z,18.87
2019-04-22T07:45:16.164Z,19.00
2019-04-22T07:45:49.280Z,19.19
2019-04-22T07:46:18.753Z,19.31
2019-04-22T07:47:10.087Z,19.50
2019-04-22T07:48:22.271Z,19.81
2019-04-22T07:48:59.932Z,19.94
2019-04-22T07:49:18.277Z,20.06
2019-04-22T07:49:50.801Z,20.19
2019-04-22T07:50:42.799Z,20.25
2019-04-22T07:51:40.222Z,20.37
2019-04-22T07:52:15.994Z,20.44
2019-04-22T07:52:49.090Z,20.44
2019-04-22T07:53:23.034Z,20.37
2019-04-22T07:53:55.846Z,20.37
2019-04-22T07:54:31.649Z,20.37
2019-04-22T07:55:04.306Z,20.25
2019-04-22T07:55:46.790Z,20.19
2019-04-22T07:56:19.060Z,20.19
2019-04-22T07:56:59.928Z,20.12
2019-04-22T07:58:05.153Z,20.06
2019-04-22T07:58:36.108Z,20.00
2019-04-22T07:59:18.697Z,19.94
2019-04-22T07:59:49.383Z,20.00
2019-04-22T08:00:27.631Z,20.06
2019-04-22T08:01:04.856Z,20.12
2019-04-22T08:01:30.507Z,20.12
2019-04-22T08:02:10.113Z,20.19
2019-04-22T08:04:17.667Z,20.25
2019-04-22T08:04:49.460Z,20.25
2019-04-22T08:05:18.926Z,20.12
2019-04-22T08:06:34.625Z,20.00
2019-04-22T08:06:52.311Z,19.94
2019-04-22T08:07:31.627Z,19.75
2019-04-22T08:08:10.978Z,19.62
2019-04-22T08:08:38.882Z,19.56
2019-04-22T08:09:18.164Z,19.56
2019-04-22T08:09:53.964Z,19.50
2019-04-22T08:10:57.959Z,19.31
2019-04-22T08:11:43.727Z,19.31
2019-04-22T08:12:26.777Z,19.31
2019-04-22T08:13:16.980Z,19.31
2019-04-22T08:13:46.631Z,19.31
2019-04-22T08:14:30.127Z,19.37
2019-04-22T08:14:59.469Z,19.37
2019-04-22T08:15:41.774Z,19.37
2019-04-22T08:16:10.728Z,19.37
2019-04-22T08:16:51.860Z,19.37
2019-04-22T08:17:50.885Z,19.31
2019-04-22T08:18:15.199Z,19.25
2019-04-22T08:19:09.105Z,19.19
2019-04-22T08:19:42.021Z,19.19
2019-04-22T08:20:15.597Z,19.12
2019-04-22T08:20:58.470Z,19.06
2019-04-22T08:21:23.889Z,19.00
2019-04-22T08:22:39.482Z,18.87
2019-04-22T08:23:16.366Z,18.87
2019-04-22T08:23:50.999Z,18.87
2019-04-22T08:24:22.782Z,18.87
2019-04-22T08:24:56.367Z,18.81
2019-04-22T08:25:36.754Z,18.87
2019-04-22T08:26:05.458Z,18.87
2019-04-22T08:26:51.335Z,18.94
2019-04-22T08:27:15.384Z,18.94
2019-04-22T08:27:53.636Z,18.87
2019-04-22T08:28:32.086Z,18.81
2019-04-22T08:29:12.341Z,18.81
2019-04-22T08:29:46.965Z,18.75
2019-04-22T08:31:28.269Z,18.69
2019-04-22T08:31:59.121Z,18.69
2019-04-22T08:33:15.853Z,18.69
2019-04-22T08:33:47.103Z,18.69
2019-04-22T08:34:23.342Z,18.75
2019-04-22T08:34:58.097Z,18.81
2019-04-22T08:35:40.778Z,18.87
2019-04-22T08:37:10.293Z,18.87
2019-04-22T08:37:41.901Z,19.00
2019-04-22T08:38:10.338Z,19.06
2019-04-22T08:38:50.457Z,19.12
2019-04-22T08:39:10.948Z,19.25
2019-04-22T08:39:36.775Z,19.37
2019-04-22T08:40:21.018Z,19.56
2019-04-22T08:41:30.237Z,19.75
2019-04-22T08:41:43.526Z,20.25
2019-04-22T08:42:47.366Z,20.50
2019-04-22T08:43:13.944Z,20.69
2019-04-22T08:43:48.318Z,20.81
2019-04-22T08:45:09.683Z,21.19
2019-04-22T08:45:31.857Z,21.31
2019-04-22T08:45:57.045Z,21.50
2019-04-22T08:46:48.927Z,21.62
2019-04-22T08:47:41.569Z,21.69
2019-04-22T08:48:18.615Z,21.62
2019-04-22T08:48:57.669Z,21.50
2019-04-22T08:49:39.501Z,21.31
2019-04-22T08:50:07.814Z,21.06
2019-04-22T08:50:42.039Z,20.88
2019-04-22T08:51:22.279Z,20.69
2019-04-22T08:51:49.339Z,20.56
2019-04-22T08:52:27.251Z,20.37
2019-04-22T08:53:02.052Z,20.25
2019-04-22T08:53:39.834Z,20.19
2019-04-22T08:54:12.152Z,20.06
2019-04-22T08:54:55.338Z,20.06
2019-04-22T08:55:26.248Z,20.00
2019-04-22T08:56:06.266Z,19.94
2019-04-22T08:57:10.774Z,19.94
2019-04-22T08:58:06.775Z,19.94
2019-04-22T08:58:57.330Z,19.81
2019-04-22T08:59:21.832Z,19.81
2019-04-22T09:00:02.904Z,19.81
2019-04-22T09:00:46.123Z,19.81
2019-04-22T09:01:17.472Z,19.81
2019-04-22T09:01:45.029Z,19.87
2019-04-22T09:02:25.798Z,19.87
2019-04-22T09:03:08.848Z,19.94
2019-04-22T09:03:40.111Z,20.00
2019-04-22T09:04:06.953Z,20.06
2019-04-22T09:04:48.950Z,20.06
2019-04-22T09:05:39.240Z,20.06
2019-04-22T09:06:06.121Z,20.00
2019-04-22T09:06:56.862Z,20.00
2019-04-22T09:07:46.602Z,20.19
2019-04-22T09:08:32.186Z,20.31
2019-04-22T09:09:00.932Z,20.50
2019-04-22T09:09:34.036Z,20.75
2019-04-22T09:10:10.363Z,21.12
2019-04-22T09:10:43.249Z,21.50
2019-04-22T09:11:20.059Z,21.75
2019-04-22T09:11:55.988Z,22.06
2019-04-22T09:12:49.159Z,22.31
2019-04-22T09:13:44.916Z,22.81
2019-04-22T09:14:15.974Z,22.94
2019-04-22T09:15:01.057Z,23.12
2019-04-22T09:15:26.622Z,23.38
2019-04-22T09:15:55.471Z,23.56
2019-04-22T09:16:41.413Z,23.81
2019-04-22T09:17:13.731Z,24.00
2019-04-22T09:17:47.843Z,24.19
2019-04-22T09:18:21.770Z,24.25
2019-04-22T09:18:56.016Z,24.19
2019-04-22T09:19:30.054Z,24.12
2019-04-22T09:20:10.925Z,24.19
2019-04-22T09:20:40.423Z,24.25
2019-04-22T09:21:18.721Z,24.19
2019-04-22T09:21:56.008Z,24.31
2019-04-22T09:22:24.743Z,24.31
2019-04-22T09:23:02.693Z,24.37
2019-04-22T09:23:42.169Z,24.31
2019-04-22T09:24:10.277Z,24.31
2019-04-22T09:25:17.305Z,24.25